Overview Statistics Trail Chart Weather Telemetry Raw packets
 

This is the latest recevied weather packets stored in our database for station/object KQ7A. If no packets are shown the sender has not sent any weather packets the latest 10 day(s).

<< 47 48 49 50 51 52 53 >>
Time Temp. Humidity Pressure Rain* Wind** Luminosity Snow
1788357604 8.89° C 51% 1017.9 hPa 0 mm - 16 W/m² -
1788357298 8.33° C 49% 1018.1 hPa 0 mm - 14 W/m² -
1788356997 8.89° C 48% 1017.8 hPa 0 mm - 11 W/m² -
1788356693 8.33° C 48% 1017.9 hPa 0 mm - 6 W/m² -
1788356388 7.78° C 51% 1017.8 hPa 0 mm - 6 W/m² -
1788356083 8.33° C 50% 1017.4 hPa 0 mm - 4 W/m² -
1788355778 7.78° C 50% 1017.7 hPa 0 mm - 2 W/m² -
1788355473 8.33° C 49% 1017.9 hPa 0 mm - 0 W/m² -
1788355173 8.33° C 49% 1017.8 hPa 0 mm - 0 W/m² -
1788354870 8.33° C 48% 1017.4 hPa 0 mm - 0 W/m² -
1788354569 7.22° C 50% 1017.1 hPa 0 mm - 0 W/m² -
1788354265 7.78° C 48% 1017.1 hPa 0 mm - 0 W/m² -
1788353960 8.33° C 49% 1017.1 hPa 0 mm - 0 W/m² -
1788353657 8.89° C 46% 1017 hPa 0 mm - 0 W/m² -
1788353352 8.89° C 45% 1017.1 hPa 0 mm - 0 W/m² -
1788353048 7.78° C 46% 1017.1 hPa 0 mm - 0 W/m² -
1788352743 7.78° C 46% 1016.9 hPa 0 mm - 0 W/m² -
1788352439 8.33° C 44% 1017 hPa 0 mm - 0 W/m² -
1788352137 7.78° C 46% 1016.8 hPa 0 mm - 0 W/m² -
1788351834 9.44° C 44% 1017 hPa 0 mm - 0 W/m² -
1788351533 9.44° C 40% 1016.9 hPa 0 mm - 0 W/m² -
1788351228 8.89° C 42% 1016.8 hPa 0 mm - 0 W/m² -
1788350923 9.44° C 41% 1017 hPa 0 mm - 0 W/m² -
1788350620 9.44° C 39% 1017 hPa 0 mm - 0 W/m² -
1788350314 9.44° C 38% 1016.9 hPa 0 mm - 0 W/m² -

* Rain latest hour (hover to see other rain measurements)
** Current wind speed in m/s (hover to see current wind gust speed)